createdAt,value
2022-09-05T00:00:23.891Z,76.79
2022-09-05T00:02:57.465Z,78.18
2022-09-05T00:05:32.648Z,77.90
2022-09-05T00:08:04.819Z,77.57
2022-09-05T00:10:37.567Z,77.91
2022-09-05T00:13:30.552Z,77.39
2022-09-05T00:16:00.845Z,76.47
2022-09-05T00:22:02.279Z,75.09
2022-09-05T00:24:20.906Z,76.54
2022-09-05T00:24:42.428Z,76.54
2022-09-05T00:27:16.825Z,76.33
2022-09-05T00:31:08.929Z,75.71
2022-09-05T00:32:50.088Z,76.87
2022-09-05T00:35:29.012Z,77.68
2022-09-05T00:37:57.289Z,77.18
2022-09-05T00:40:27.274Z,76.58
2022-09-05T00:43:01.222Z,77.24
2022-09-05T00:45:31.585Z,76.83
2022-09-05T00:48:00.852Z,76.32
2022-09-05T00:50:29.726Z,77.16
2022-09-05T00:53:07.299Z,77.56
2022-09-05T00:55:38.201Z,78.93
2022-09-05T00:58:24.294Z,79.09
2022-09-05T01:00:56.896Z,78.97
2022-09-05T01:03:29.835Z,78.84
2022-09-05T01:06:06.681Z,78.77
2022-09-05T01:08:55.143Z,79.37
2022-09-05T01:11:34.098Z,75.99
2022-09-05T01:14:03.580Z,75.65
2022-09-05T01:16:45.135Z,76.12
2022-09-05T01:19:15.779Z,77.76
2022-09-05T01:21:49.582Z,76.71
2022-09-05T01:24:32.377Z,75.16
2022-09-05T01:27:19.031Z,75.42
2022-09-05T01:29:49.317Z,76.01
2022-09-05T01:32:19.867Z,76.30
2022-09-05T01:34:54.695Z,79.03
2022-09-05T01:37:33.732Z,79.44
2022-09-05T01:40:14.614Z,78.69
2022-09-05T01:42:46.457Z,77.90
2022-09-05T01:45:19.863Z,78.84
2022-09-05T01:47:50.356Z,78.13
2022-09-05T01:50:25.998Z,78.86
2022-09-05T01:53:02.564Z,77.90
2022-09-05T01:55:37.935Z,77.46
2022-09-05T01:58:25.645Z,77.83
2022-09-05T02:00:57.269Z,78.28
2022-09-05T02:03:45.649Z,77.48
2022-09-05T02:06:30.545Z,76.83
2022-09-05T02:09:15.094Z,78.13
2022-09-05T02:11:45.484Z,77.79
2022-09-05T02:14:28.783Z,76.70
2022-09-05T02:17:23.608Z,77.25
2022-09-05T02:20:01.025Z,77.94
2022-09-05T02:22:29.593Z,77.28
2022-09-05T02:25:30.649Z,77.28
2022-09-05T02:28:05.628Z,79.21
2022-09-05T02:30:35.876Z,79.92
2022-09-05T02:33:09.018Z,78.35
2022-09-05T02:35:39.991Z,77.83
2022-09-05T02:41:48.568Z,79.73
2022-09-05T02:45:21.086Z,79.59
2022-09-05T02:45:21.361Z,79.88
2022-09-05T02:46:38.026Z,78.99
2022-09-05T02:49:38.157Z,80.11
2022-09-05T02:57:28.116Z,79.49
2022-09-05T02:57:36.180Z,79.65
2022-09-05T02:58:06.976Z,80.29
2022-09-05T03:00:27.277Z,80.37
2022-09-05T03:03:01.949Z,79.65
2022-09-05T03:05:32.133Z,79.92
2022-09-05T03:08:09.174Z,78.67
2022-09-05T03:10:54.482Z,79.05
2022-09-05T03:13:53.996Z,79.95
2022-09-05T03:16:47.193Z,80.12
2022-09-05T03:19:33.394Z,80.33
2022-09-05T03:22:22.560Z,81.06
2022-09-05T03:25:08.541Z,80.45
2022-09-05T03:27:54.219Z,80.49
2022-09-05T03:30:23.363Z,80.29
2022-09-05T03:33:09.746Z,80.65
2022-09-05T03:35:42.006Z,81.01
2022-09-05T03:38:28.195Z,81.16
2022-09-05T03:41:02.596Z,82.28
2022-09-05T03:43:48.966Z,81.76
2022-09-05T03:46:22.743Z,82.07
2022-09-05T03:49:27.243Z,83.40
2022-09-05T03:57:08.731Z,82.94
2022-09-05T03:57:17.819Z,83.22
2022-09-05T03:57:56.905Z,81.91
2022-09-05T04:00:30.239Z,82.17
2022-09-05T04:08:14.636Z,82.04
2022-09-05T04:08:18.449Z,82.07
2022-09-05T04:08:45.985Z,80.64
2022-09-05T04:11:15.458Z,81.54
2022-09-05T04:13:46.945Z,78.78
2022-09-05T04:16:18.763Z,79.05
2022-09-05T04:18:50.068Z,79.01
2022-09-05T04:21:20.179Z,78.90
2022-09-05T04:23:50.870Z,78.48
2022-09-05T04:26:23.687Z,78.71
2022-09-05T04:28:56.857Z,78.74
2022-09-05T04:31:27.801Z,77.55
2022-09-05T04:34:01.279Z,76.67
2022-09-05T04:36:33.081Z,76.85
2022-09-05T04:39:08.300Z,76.68
2022-09-05T04:41:39.486Z,78.66
2022-09-05T04:44:08.325Z,78.87
2022-09-05T04:46:47.375Z,79.67
2022-09-05T04:49:18.394Z,79.18
2022-09-05T04:52:00.742Z,79.40
2022-09-05T04:54:38.826Z,80.20
2022-09-05T04:57:17.971Z,79.58
2022-09-05T05:02:10.192Z,78.60
2022-09-05T05:06:12.587Z,78.93
2022-09-05T05:06:14.656Z,78.51
2022-09-05T05:08:31.737Z,79.75
2022-09-05T05:17:43.001Z,79.45
2022-09-05T05:17:55.651Z,79.22
2022-09-05T05:18:12.787Z,79.25
2022-09-05T05:19:40.465Z,79.52
2022-09-05T05:22:17.236Z,80.19
2022-09-05T05:24:45.796Z,78.01
2022-09-05T05:27:18.061Z,79.06
2022-09-05T05:29:50.173Z,79.35
2022-09-05T05:32:31.720Z,79.41
2022-09-05T05:35:09.042Z,78.31
2022-09-05T05:37:41.006Z,78.75
2022-09-05T05:40:09.888Z,77.62
2022-09-05T05:42:40.791Z,78.24
2022-09-05T05:45:08.918Z,79.81
2022-09-05T05:47:37.229Z,81.35
2022-09-05T05:50:11.549Z,82.17
2022-09-05T05:52:59.776Z,81.77
2022-09-05T05:55:51.314Z,80.62
2022-09-05T05:58:37.218Z,80.73
2022-09-05T06:01:21.986Z,80.06
2022-09-05T06:04:16.705Z,78.89
2022-09-05T06:06:49.499Z,79.40
2022-09-05T06:14:54.717Z,79.83
2022-09-05T06:15:06.830Z,81.55
2022-09-05T06:16:07.609Z,80.60
2022-09-05T06:18:55.757Z,79.98
2022-09-05T06:22:09.628Z,78.22
2022-09-05T06:25:04.794Z,78.39
2022-09-05T06:28:08.759Z,77.77
2022-09-05T06:30:42.386Z,76.98
2022-09-05T06:33:20.089Z,76.46
2022-09-05T06:36:07.762Z,78.05
2022-09-05T06:38:49.179Z,78.73
2022-09-05T06:41:20.893Z,78.62
2022-09-05T06:44:09.118Z,79.50
2022-09-05T06:46:55.066Z,78.04
2022-09-05T06:49:30.323Z,77.74
2022-09-05T06:52:29.785Z,76.75
2022-09-05T06:55:06.377Z,75.38
2022-09-05T06:57:44.038Z,73.75
2022-09-05T07:00:22.687Z,73.52
2022-09-05T07:03:20.994Z,74.71
2022-09-05T07:05:56.583Z,73.00
2022-09-05T07:08:36.140Z,73.21
2022-09-05T07:11:15.600Z,72.76
2022-09-05T07:13:49.982Z,74.82
2022-09-05T07:16:37.034Z,72.76
2022-09-05T07:19:10.408Z,72.79
2022-09-05T07:21:41.812Z,72.43
2022-09-05T07:24:14.176Z,70.76
2022-09-05T07:26:53.852Z,70.72
2022-09-05T07:29:27.687Z,71.23
2022-09-05T07:31:56.821Z,69.29
2022-09-05T07:34:28.146Z,70.21
2022-09-05T07:37:13.991Z,70.12
2022-09-05T07:39:45.464Z,69.42
2022-09-05T07:42:14.617Z,71.55
2022-09-05T07:44:44.327Z,70.50
2022-09-05T07:47:13.797Z,69.48
2022-09-05T07:49:57.967Z,68.42
2022-09-05T07:56:50.336Z,68.88
2022-09-05T07:56:59.518Z,68.80
2022-09-05T07:58:13.197Z,69.50
2022-09-05T08:00:42.280Z,69.03
2022-09-05T08:03:11.195Z,68.19
2022-09-05T08:05:41.222Z,68.35
2022-09-05T08:08:11.590Z,66.77
2022-09-05T08:11:23.314Z,66.63
2022-09-05T08:13:48.113Z,66.85
2022-09-05T08:16:19.498Z,66.97
2022-09-05T08:18:50.533Z,66.84
2022-09-05T08:21:27.000Z,67.66
2022-09-05T08:23:58.458Z,65.83
2022-09-05T08:26:34.112Z,65.67
2022-09-05T08:29:04.595Z,64.04
2022-09-05T08:31:35.248Z,64.41
2022-09-05T08:34:10.381Z,62.65
2022-09-05T08:36:43.046Z,60.83
2022-09-05T08:39:12.101Z,59.94
2022-09-05T08:41:51.194Z,61.00
2022-09-05T08:46:42.014Z,62.15
2022-09-05T08:47:20.442Z,61.27
2022-09-05T08:49:53.348Z,58.61
2022-09-05T08:52:26.379Z,58.29
2022-09-05T08:55:05.814Z,59.00
2022-09-05T08:57:51.164Z,58.61
2022-09-05T09:00:24.909Z,59.07
2022-09-05T09:03:03.997Z,58.46
2022-09-05T09:06:12.843Z,57.49
2022-09-05T09:08:33.475Z,56.47
2022-09-05T09:11:03.697Z,56.52
2022-09-05T09:13:37.673Z,56.18
2022-09-05T09:16:09.103Z,55.59
2022-09-05T09:18:42.815Z,54.93
2022-09-05T09:21:24.454Z,56.83
2022-09-05T09:23:58.457Z,55.86
2022-09-05T09:26:32.451Z,54.78
2022-09-05T09:29:02.615Z,56.29
2022-09-05T09:31:34.705Z,56.00
2022-09-05T09:34:26.495Z,55.18
2022-09-05T09:37:01.496Z,54.30
2022-09-05T09:39:39.258Z,53.74
2022-09-05T09:42:13.544Z,52.76
2022-09-05T09:45:28.015Z,51.40
2022-09-05T09:48:17.639Z,52.77
2022-09-05T09:50:58.538Z,51.59
2022-09-05T09:53:43.199Z,50.08
2022-09-05T09:56:31.971Z,51.03
2022-09-05T09:59:20.309Z,50.01
2022-09-05T10:01:57.567Z,49.71
2022-09-05T10:10:34.990Z,49.17
2022-09-05T10:10:50.597Z,50.40
2022-09-05T10:11:22.649Z,49.80
2022-09-05T10:13:37.436Z,50.28
2022-09-05T10:16:20.601Z,49.44
2022-09-05T10:18:54.619Z,49.86
2022-09-05T10:21:31.499Z,50.00
2022-09-05T10:24:18.218Z,48.72
2022-09-05T10:27:04.612Z,48.76
2022-09-05T10:29:44.210Z,47.41
2022-09-05T10:35:10.444Z,48.14
2022-09-05T10:35:22.589Z,47.06
2022-09-05T10:37:54.281Z,46.92
2022-09-05T10:40:22.312Z,45.41
2022-09-05T10:43:00.916Z,46.28
2022-09-05T10:45:38.109Z,46.60
2022-09-05T10:48:15.778Z,46.74
2022-09-05T10:50:44.369Z,45.12
2022-09-05T10:53:34.829Z,46.32
2022-09-05T10:56:09.983Z,46.64
2022-09-05T11:02:16.228Z,46.18
2022-09-05T11:02:22.026Z,45.16
2022-09-05T11:04:49.890Z,45.10
2022-09-05T11:07:29.202Z,44.28
2022-09-05T11:10:05.472Z,45.64
2022-09-05T11:12:50.344Z,43.26
2022-09-05T11:15:27.723Z,42.23
2022-09-05T11:17:55.629Z,43.38
2022-09-05T11:20:38.197Z,42.79
2022-09-05T11:23:10.962Z,42.45
2022-09-05T11:25:41.076Z,45.41
2022-09-05T11:28:15.932Z,45.19
2022-09-05T11:30:49.419Z,46.35
2022-09-05T11:39:52.577Z,46.05
2022-09-05T11:40:06.360Z,49.42
2022-09-05T11:40:10.857Z,48.17
2022-09-05T11:42:06.545Z,48.31
2022-09-05T11:44:35.974Z,47.47
2022-09-05T11:47:27.075Z,46.87
2022-09-05T11:50:02.343Z,48.55
2022-09-05T11:52:51.550Z,47.75
2022-09-05T11:55:39.969Z,47.27
2022-09-05T11:58:43.269Z,46.36
2022-09-05T12:01:38.211Z,45.32
2022-09-05T12:04:01.125Z,44.57
2022-09-05T12:06:57.396Z,44.57
2022-09-05T12:09:33.325Z,42.70
2022-09-05T12:12:18.719Z,42.02
2022-09-05T12:15:04.307Z,41.71
2022-09-05T12:17:47.414Z,42.29
2022-09-05T12:20:22.075Z,42.02
2022-09-05T12:22:55.840Z,43.47
2022-09-05T12:27:36.017Z,41.84
2022-09-05T12:29:28.142Z,42.26
2022-09-05T12:32:48.360Z,40.55
2022-09-05T12:36:11.387Z,40.30
2022-09-05T12:40:44.895Z,40.72
2022-09-05T12:41:36.533Z,42.03
2022-09-05T12:42:48.362Z,43.35
2022-09-05T12:45:37.103Z,43.79
2022-09-05T12:48:09.252Z,43.45
2022-09-05T12:50:43.765Z,44.07
2022-09-05T12:53:12.367Z,43.38
2022-09-05T12:55:40.865Z,44.44
2022-09-05T13:03:03.881Z,43.10
2022-09-05T13:03:12.928Z,41.39
2022-09-05T13:04:20.748Z,42.55
2022-09-05T13:06:55.186Z,43.12
2022-09-05T13:09:23.774Z,44.00
2022-09-05T13:14:56.432Z,45.11
2022-09-05T13:15:12.363Z,44.83
2022-09-05T13:17:49.813Z,45.36
2022-09-05T13:20:20.467Z,44.84
2022-09-05T13:22:50.899Z,45.06
2022-09-05T13:25:22.903Z,45.65
2022-09-05T13:27:56.833Z,44.90
2022-09-05T13:32:11.836Z,45.34
2022-09-05T13:38:00.927Z,45.06
2022-09-05T13:38:02.195Z,45.94
2022-09-05T13:39:05.362Z,44.08
2022-09-05T13:41:36.002Z,42.99
2022-09-05T13:44:25.659Z,44.31
2022-09-05T13:46:59.348Z,44.22
2022-09-05T13:49:35.358Z,44.19
2022-09-05T13:52:11.806Z,44.14
2022-09-05T13:54:46.415Z,44.60
2022-09-05T13:57:31.847Z,43.84
2022-09-05T14:00:27.911Z,42.48
2022-09-05T14:06:00.033Z,40.91
2022-09-05T14:09:35.221Z,39.94
2022-09-05T14:11:57.694Z,40.43
2022-09-05T14:20:35.339Z,40.90
2022-09-05T14:23:07.809Z,41.08
2022-09-05T14:25:43.121Z,40.54
2022-09-05T14:28:14.448Z,40.52
2022-09-05T14:33:45.343Z,40.03
2022-09-05T14:37:50.391Z,40.08
2022-09-05T14:38:01.062Z,39.93
2022-09-05T14:39:32.003Z,38.29
2022-09-05T14:42:21.505Z,38.66
2022-09-05T14:45:07.720Z,38.67
2022-09-05T14:47:47.457Z,39.48
2022-09-05T14:50:34.987Z,40.19
2022-09-05T14:56:12.222Z,41.94
2022-09-05T15:02:42.187Z,43.17
2022-09-05T15:02:44.772Z,43.34
2022-09-05T15:04:40.871Z,43.79
2022-09-05T15:07:14.983Z,44.36
2022-09-05T15:12:20.852Z,44.21
2022-09-05T15:12:44.163Z,43.04
2022-09-05T15:15:22.188Z,42.27
2022-09-05T15:17:52.584Z,42.40
2022-09-05T15:20:33.904Z,42.65
2022-09-05T15:23:16.326Z,40.86
2022-09-05T15:25:47.138Z,41.79
2022-09-05T15:28:23.607Z,41.65
2022-09-05T15:31:01.201Z,41.38
2022-09-05T15:33:31.986Z,40.46
2022-09-05T15:36:01.792Z,41.55
2022-09-05T15:38:31.855Z,41.34
2022-09-05T15:41:20.319Z,42.37
2022-09-05T15:43:53.457Z,41.68
2022-09-05T15:46:23.991Z,42.66
2022-09-05T15:48:58.046Z,43.50
2022-09-05T15:51:34.582Z,43.33
2022-09-05T15:54:08.382Z,44.84
2022-09-05T15:56:46.793Z,43.66
2022-09-05T15:59:17.448Z,44.05
2022-09-05T16:02:00.327Z,44.95
2022-09-05T16:10:13.624Z,45.08
2022-09-05T16:10:38.138Z,45.03
2022-09-05T16:10:59.097Z,45.53
2022-09-05T16:12:58.208Z,45.32
2022-09-05T16:16:33.703Z,46.14
2022-09-05T16:23:14.502Z,45.71
2022-09-05T16:23:32.028Z,46.36
2022-09-05T16:24:04.910Z,46.51
2022-09-05T16:26:34.886Z,47.09
2022-09-05T16:29:03.388Z,47.24
2022-09-05T16:31:33.903Z,47.03
2022-09-05T16:34:12.159Z,47.50
2022-09-05T16:36:48.646Z,47.54
2022-09-05T16:39:28.539Z,47.34
2022-09-05T16:41:56.687Z,47.32
2022-09-05T16:44:27.450Z,47.49
2022-09-05T16:47:03.050Z,47.72
2022-09-05T16:49:43.014Z,48.06
2022-09-05T16:52:17.202Z,47.05
2022-09-05T16:54:46.718Z,46.83
2022-09-05T16:57:16.767Z,46.85
2022-09-05T16:59:45.295Z,47.33
2022-09-05T17:02:13.525Z,46.69
2022-09-05T17:05:03.376Z,47.17
2022-09-05T17:07:42.041Z,47.67
2022-09-05T17:10:13.818Z,47.17
2022-09-05T17:12:41.943Z,47.48
2022-09-05T17:15:11.464Z,47.79
2022-09-05T17:18:20.043Z,47.29
2022-09-05T17:20:38.349Z,47.69
2022-09-05T17:29:15.903Z,47.43
2022-09-05T17:29:25.750Z,48.15
2022-09-05T17:29:26.615Z,48.42
2022-09-05T17:31:56.187Z,48.61
2022-09-05T17:34:44.086Z,48.89
2022-09-05T17:37:19.809Z,48.75
2022-09-05T17:39:50.494Z,48.73
2022-09-05T17:42:26.237Z,49.56
2022-09-05T17:45:00.528Z,49.13
2022-09-05T17:47:35.414Z,49.62
2022-09-05T17:50:11.904Z,50.07
2022-09-05T17:52:59.296Z,50.21
2022-09-05T17:55:42.008Z,51.25
2022-09-05T17:58:21.990Z,51.76
2022-09-05T18:01:05.509Z,52.61
2022-09-05T18:04:15.837Z,53.01
2022-09-05T18:07:00.250Z,52.86
2022-09-05T18:10:01.476Z,55.29
2022-09-05T18:13:13.383Z,54.54
2022-09-05T18:15:52.176Z,55.22
2022-09-05T18:19:27.911Z,54.46
2022-09-05T18:21:23.159Z,54.11
2022-09-05T18:23:55.844Z,54.24
2022-09-05T18:26:24.319Z,54.82
2022-09-05T18:28:59.978Z,55.54
2022-09-05T18:31:51.146Z,55.60
2022-09-05T18:34:38.190Z,55.00
2022-09-05T18:37:23.202Z,54.97
2022-09-05T18:40:06.595Z,54.92
2022-09-05T18:42:37.604Z,54.92
2022-09-05T18:45:14.675Z,57.29
2022-09-05T18:47:51.144Z,57.09
2022-09-05T18:50:27.034Z,58.22
2022-09-05T18:53:08.721Z,57.54
2022-09-05T18:56:11.257Z,57.99
2022-09-05T18:58:28.524Z,57.10
2022-09-05T19:00:56.565Z,58.09
2022-09-05T19:03:25.623Z,58.10
2022-09-05T19:05:55.717Z,58.46
2022-09-05T19:08:38.590Z,58.90
2022-09-05T19:11:28.323Z,59.38
2022-09-05T19:14:14.249Z,59.27
2022-09-05T19:16:48.220Z,59.42
2022-09-05T19:19:24.764Z,58.75
2022-09-05T19:22:07.100Z,59.01
2022-09-05T19:24:45.557Z,59.06
2022-09-05T19:28:58.430Z,59.60
2022-09-05T19:35:45.504Z,61.10
2022-09-05T19:36:50.678Z,61.03
2022-09-05T19:37:08.889Z,60.61
2022-09-05T19:39:32.601Z,61.17
2022-09-05T19:47:34.150Z,60.81
2022-09-05T19:47:38.545Z,61.71
2022-09-05T19:47:38.732Z,62.83
2022-09-05T19:50:09.646Z,61.16
2022-09-05T19:52:39.751Z,63.27
2022-09-05T19:55:22.427Z,63.91
2022-09-05T19:57:59.675Z,64.19
2022-09-05T20:01:00.272Z,63.29
2022-09-05T20:03:37.123Z,64.56
2022-09-05T20:06:29.320Z,64.15
2022-09-05T20:09:08.722Z,63.88
2022-09-05T20:11:45.661Z,64.20
2022-09-05T20:14:21.607Z,62.96
2022-09-05T20:16:54.646Z,63.84
2022-09-05T20:19:28.730Z,62.95
2022-09-05T20:21:58.283Z,62.87
2022-09-05T20:24:26.073Z,62.15
2022-09-05T20:26:53.777Z,64.32
2022-09-05T20:29:54.020Z,63.67
2022-09-05T20:32:18.086Z,63.10
2022-09-05T20:39:56.201Z,63.78
2022-09-05T20:43:14.515Z,63.82
2022-09-05T20:43:15.474Z,65.19
2022-09-05T20:43:54.764Z,66.45
2022-09-05T20:50:45.663Z,65.58
2022-09-05T20:54:09.601Z,64.46
2022-09-05T20:54:26.432Z,64.11
2022-09-05T20:54:57.861Z,65.38
2022-09-05T20:57:31.233Z,67.06
2022-09-05T21:00:04.858Z,67.50
2022-09-05T21:02:33.354Z,67.93
2022-09-05T21:05:06.750Z,68.67
2022-09-05T21:08:02.435Z,66.85
2022-09-05T21:10:55.400Z,67.05
2022-09-05T21:13:24.171Z,66.00
2022-09-05T21:15:54.031Z,65.86
2022-09-05T21:18:33.122Z,65.70
2022-09-05T21:21:14.611Z,66.98
2022-09-05T21:24:08.994Z,67.21
2022-09-05T21:26:50.845Z,66.46
2022-09-05T21:29:27.635Z,66.95
2022-09-05T21:32:01.029Z,69.48
2022-09-05T21:34:31.111Z,70.20
2022-09-05T21:37:07.166Z,69.50
2022-09-05T21:39:36.726Z,68.59
2022-09-05T21:42:22.938Z,70.85
2022-09-05T21:47:41.108Z,71.49
2022-09-05T21:47:53.624Z,71.61
2022-09-05T21:50:31.030Z,70.28
2022-09-05T21:54:35.162Z,71.09
2022-09-05T21:59:19.391Z,72.49
2022-09-05T21:59:25.436Z,71.85
2022-09-05T22:01:51.698Z,72.65
2022-09-05T22:04:17.116Z,71.66
2022-09-05T22:06:48.779Z,71.28
2022-09-05T22:09:30.172Z,71.86
2022-09-05T22:11:57.815Z,72.73
2022-09-05T22:14:26.105Z,73.13
2022-09-05T22:16:55.003Z,73.12
2022-09-05T22:19:37.255Z,71.74
2022-09-05T22:22:07.575Z,72.43
2022-09-05T22:24:36.662Z,73.17
2022-09-05T22:27:11.632Z,72.81
2022-09-05T22:29:40.907Z,73.04
2022-09-05T22:32:08.792Z,74.48
2022-09-05T22:34:37.853Z,74.19
2022-09-05T22:37:05.881Z,75.33
2022-09-05T22:39:37.913Z,75.80
2022-09-05T22:42:11.094Z,75.43
2022-09-05T22:44:39.513Z,75.10
2022-09-05T22:47:07.548Z,74.06
2022-09-05T22:49:36.493Z,75.58
2022-09-05T22:52:05.186Z,76.11
2022-09-05T22:54:32.848Z,75.97
2022-09-05T22:57:00.469Z,75.67
2022-09-05T22:59:30.269Z,74.19
2022-09-05T23:01:58.049Z,74.66
2022-09-05T23:04:25.966Z,74.90
2022-09-05T23:06:53.821Z,75.35
2022-09-05T23:09:28.154Z,76.32
2022-09-05T23:11:55.725Z,75.06
2022-09-05T23:14:25.418Z,74.07
2022-09-05T23:16:55.573Z,73.28
2022-09-05T23:19:23.180Z,74.79
2022-09-05T23:21:50.814Z,74.27
2022-09-05T23:24:18.419Z,75.05
2022-09-05T23:26:46.014Z,74.81
2022-09-05T23:29:13.947Z,76.17
2022-09-05T23:31:42.033Z,76.26
2022-09-05T23:34:12.432Z,76.73
2022-09-05T23:36:49.196Z,76.55
2022-09-05T23:39:17.142Z,76.32
2022-09-05T23:41:45.187Z,76.80
2022-09-05T23:44:15.616Z,78.09
2022-09-05T23:46:43.464Z,78.53
2022-09-05T23:49:13.145Z,78.91
2022-09-05T23:51:40.758Z,79.59
2022-09-05T23:54:08.563Z,78.59
2022-09-05T23:56:39.042Z,79.15
2022-09-05T23:59:06.702Z,79.15
